Aspea, Sweden

2:03 AM CEST on May 28, 2017 (GMT +0200)
Eldsmark | | Change Station

Elev 312 ft 63.46 °N, 19.06 °E | Updated 14 seconds ago

Overcast
Overcast
42.8 °F
Feels Like 43 °F
N
0.0
Wind Variable Wind from East
Gusts 0.0 mph

Today
High -- | Low -- °F
--% Chance of Precip.
Yesterday
High -- | Low -- °F
Precip. -- in
Pressure 30.04 in
Visibility 6.2 miles
Clouds Mostly Cloudy 300 ft
Overcast 400 ft
Windchill 43 °F
Dew Point 43 °F
Humidity 99%
Rainfall 0.00 in
Snow Depth Not available.
2:57 AM 10:24 PM
Waxing Crescent, 7% visible
METAR ESNO 272350Z AUTO 10009KT 9999 BKN003/// OVC004/// 05/05 Q1017
Pressure 30.04 in
Visibility 6.2 miles
Clouds Mostly Cloudy 300 ft
Overcast 400 ft
Windchill 43 °F
Dew Point 43 °F
Humidity 99%
Rainfall 0.00 in
Snow Depth Not available.
2:57 AM 10:24 PM
Waxing Crescent, 7% visible
METAR ESNO 272350Z AUTO 10009KT 9999 BKN003/// OVC004/// 05/05 Q1017

Get Severe Weather Alerts

Thanks for signing up!

Be on the lookout for a verification email in your inbox.

You'll start receiving the daily forecast at 6 AM.

×

10-Day Weather Forecast

×

Almanac

Astronomy

May. 28, 2017 Rise Set
Actual Time
Civil Twilight
Nautical Twilight
Astronomical Twilight
Moon
Length of Visible Light
Length of Day
Tomorrow will be .
, % of the Moon is Illuminated

Today's Extremes

Country Highs Country Lows

Community

WunderPhotos

Category 6

Welcome to Category 6. This is the collective home for Weather Underground's featured writeups by Dr. Jeff Masters (right), Bob Henson (left), Chris Burt, and other regular contributors.

Nearby

Air Quality

  Air Quality AQ Index Pollutant
Not available.

Snow Depth

Station Depth Elevation

Earthquake Activity

City Distance Mag. Time & Date
Minimum magnitude displayed is 2.5.

Coastal Water Temperatures

Place Temperature

Stations

Nearby Weather Stations

Station Location Temp. Windchill Dew Point Humidity Wind Precip. Elev Updated Type